To NAV CANADA Home Page Login to a new session Search on AWWS site Feedback and Comments Disclaimer Vers la page française équivalente Tips FAQ What's new on the site To the Forecasts and Observations / NOTAM section To "File a Flight Plan" website Publications and other links Update of the User's profile FIC Telephone Numbers My Weather Data Folder Route Weather Data Regional Weather Data Local Weather Data To the Forecasts and Observations / NOTAM section
Request Generated 03/06/2015 at 12:32:25 UTC . Weather information available at that time is displayed.

METAR/TAF

MEDICINE HAT/AB    (show WxCam)

METAR CYXH 061200Z AUTO 23009KT 9SM BKN140 00/M04 A2999 RMK SLP177=
METAR CYXH 061100Z AUTO 20011KT 9SM CLR 00/M04 A2999 RMK SLP176=
METAR CYXH 061000Z AUTO 19006KT 9SM CLR 00/M04 A3001 RMK SLP181=

TAF CYXH 061143Z 0612/0624 20010KT P6SM SCT240
BECMG 0613/0615 25012KT
FM061600 27015G25KT P6SM SCT240
BECMG 0616/0618 27022G32KT
FM062000 32020G30KT P6SM SCT080 SCT240
BECMG 0622/0624 33015KT
RMK FCST BASED ON AUTO OBS. NXT FCST BY 061800Z=
Your time UTC time
Weather data provided by Environment Canada and NAV CANADA